Time;durP1;ratioP1;P1;durP2;ratioP2;P2;SDS_P1;SDS_P2;PMS_P1;PMS_P2;Temp;Humidity;BMP_temperature;BMP_pressure;BME280_temperature;BME280_humidity;BME280_pressure;Samples;Min_cycle;Max_cycle;Signal;HPM_P1;HPM_P2
2020/12/15 00:01:46;;;;;;;6.75;5.00;;;;;;;;;;5077696;28;20184;-73
2020/12/15 00:04:12;;;;;;;4.68;4.28;;;;;;;;;;5074821;28;20222;-75
2020/12/15 00:06:38;;;;;;;6.35;4.60;;;;;;;;;;5090238;28;20229;-75
2020/12/15 00:09:04;;;;;;;5.25;4.38;;;;;;;;;;5076748;28;20216;-78
2020/12/15 00:11:30;;;;;;;5.30;4.80;;;;;;;;;;5102025;28;20196;-76
2020/12/15 00:13:56;;;;;;;6.47;5.88;;;;;;;;;;5076285;28;20187;-75
2020/12/15 00:16:22;;;;;;;5.90;5.30;;;;;;;;;;5083801;28;20187;-77
2020/12/15 00:18:48;;;;;;;4.95;4.45;;;;;;;;;;5088846;28;20206;-76
2020/12/15 00:21:21;;;;;;;5.15;4.30;;;;;;;;;;5070735;28;20794;-75
2020/12/15 00:23:51;;;;;;;5.63;5.05;;;;;;;;;;5072335;28;20247;-74
2020/12/15 00:26:17;;;;;;;5.03;4.63;;;;;;;;;;5070704;28;20628;-75
2020/12/15 00:28:44;;;;;;;4.90;4.40;;;;;;;;;;5073546;28;20203;-76
2020/12/15 00:31:10;;;;;;;4.97;4.15;;;;;;;;;;5081504;28;20873;-77
2020/12/15 00:33:36;;;;;;;5.13;4.63;;;;;;;;;;5071912;28;20583;-76
2020/12/15 00:36:03;;;;;;;4.60;4.20;;;;;;;;;;5090706;28;20262;-75
2020/12/15 00:38:29;;;;;;;5.45;4.80;;;;;;;;;;5090057;28;20199;-76
2020/12/15 00:40:55;;;;;;;5.18;4.78;;;;;;;;;;5080058;28;20295;-74
2020/12/15 00:43:21;;;;;;;5.43;5.03;;;;;;;;;;5072208;28;20192;-78
2020/12/15 00:45:47;;;;;;;5.97;5.05;;;;;;;;;;5084512;28;20180;-72
2020/12/15 00:48:13;;;;;;;5.25;4.80;;;;;;;;;;5080049;28;20620;-77
2020/12/15 00:50:40;;;;;;;5.28;4.78;;;;;;;;;;5073116;28;20180;-77
2020/12/15 00:53:06;;;;;;;7.10;4.80;;;;;;;;;;5078514;28;20195;-74
2020/12/15 00:55:32;;;;;;;5.50;4.85;;;;;;;;;;5072713;28;20184;-76
2020/12/15 00:57:58;;;;;;;5.80;5.30;;;;;;;;;;5076652;28;20618;-74
2020/12/15 01:00:25;;;;;;;5.95;5.10;;;;;;;;;;5089900;28;20208;-76
2020/12/15 01:02:51;;;;;;;6.38;5.78;;;;;;;;;;5079691;28;20188;-76
2020/12/15 01:05:17;;;;;;;7.75;5.53;;;;;;;;;;5074655;28;20214;-76
2020/12/15 01:07:43;;;;;;;5.82;5.30;;;;;;;;;;5083136;28;20659;-74
2020/12/15 01:10:09;;;;;;;6.28;5.53;;;;;;;;;;5083442;28;20199;-76
2020/12/15 01:12:36;;;;;;;6.82;5.60;;;;;;;;;;5078833;28;20183;-75
2020/12/15 01:15:02;;;;;;;7.65;5.65;;;;;;;;;;5088490;28;20173;-74
2020/12/15 01:17:28;;;;;;;6.55;5.55;;;;;;;;;;5092140;28;20199;-73
2020/12/15 01:19:54;;;;;;;6.05;5.53;;;;;;;;;;5087238;28;20568;-76
2020/12/15 01:22:20;;;;;;;6.63;5.93;;;;;;;;;;5082005;28;20195;-72
2020/12/15 01:24:46;;;;;;;7.10;6.40;;;;;;;;;;5072535;28;20200;-74
2020/12/15 01:27:12;;;;;;;6.50;5.90;;;;;;;;;;5077173;28;20206;-73
2020/12/15 01:29:38;;;;;;;7.07;6.43;;;;;;;;;;5092889;28;20613;-72
2020/12/15 01:32:04;;;;;;;7.10;6.40;;;;;;;;;;5093423;28;20549;-71
2020/12/15 01:34:31;;;;;;;6.72;6.13;;;;;;;;;;5088137;28;20241;-73
2020/12/15 01:36:58;;;;;;;10.35;6.28;;;;;;;;;;5072955;28;20188;-72
2020/12/15 01:39:24;;;;;;;6.93;6.25;;;;;;;;;;5072785;28;20299;-72
2020/12/15 01:41:50;;;;;;;7.55;6.57;;;;;;;;;;5084901;28;20186;-73
2020/12/15 01:44:17;;;;;;;8.55;7.22;;;;;;;;;;5092593;28;20249;-71
2020/12/15 01:46:43;;;;;;;9.32;6.63;;;;;;;;;;5092908;28;20187;-73
2020/12/15 01:49:09;;;;;;;6.90;6.22;;;;;;;;;;5092952;28;20199;-72
2020/12/15 01:51:36;;;;;;;7.80;7.05;;;;;;;;;;5093160;28;20207;-72
2020/12/15 01:54:05;;;;;;;7.70;7.00;;;;;;;;;;5094749;28;20175;-72
2020/12/15 01:56:31;;;;;;;9.77;7.40;;;;;;;;;;5096978;28;20182;-72
2020/12/15 01:58:58;;;;;;;7.88;7.07;;;;;;;;;;5090826;28;20283;-72
2020/12/15 02:01:24;;;;;;;7.90;7.05;;;;;;;;;;5087538;28;20183;-74
2020/12/15 02:03:51;;;;;;;7.78;7.07;;;;;;;;;;5094436;28;20291;-73
2020/12/15 02:06:18;;;;;;;8.38;7.57;;;;;;;;;;5086073;28;20230;-73
2020/12/15 02:08:44;;;;;;;6.88;6.28;;;;;;;;;;5082514;28;20195;-71
2020/12/15 02:11:11;;;;;;;7.75;6.93;;;;;;;;;;5104061;28;20634;-73
2020/12/15 02:13:37;;;;;;;7.70;6.47;;;;;;;;;;5096153;28;20176;-73
2020/12/15 02:16:13;;;;;;;6.50;5.88;;;;;;;;;;5086170;28;20180;-72
2020/12/15 02:18:39;;;;;;;7.55;6.40;;;;;;;;;;5084760;28;20243;-72
2020/12/15 02:21:06;;;;;;;8.00;6.43;;;;;;;;;;5087925;28;20168;-72
2020/12/15 02:23:33;;;;;;;8.90;7.32;;;;;;;;;;5093597;28;20178;-72
2020/12/15 02:25:59;;;;;;;7.93;7.13;;;;;;;;;;5076133;28;20195;-75
2020/12/15 02:28:25;;;;;;;7.20;6.40;;;;;;;;;;5088070;28;20172;-75
2020/12/15 02:30:51;;;;;;;7.60;6.85;;;;;;;;;;5091675;28;20564;-73
2020/12/15 02:33:17;;;;;;;10.82;6.68;;;;;;;;;;5090660;28;20178;-73
2020/12/15 02:35:43;;;;;;;10.45;7.30;;;;;;;;;;5091382;28;20225;-74
2020/12/15 02:38:09;;;;;;;9.82;7.13;;;;;;;;;;5096309;28;20178;-74
2020/12/15 02:40:35;;;;;;;7.70;6.90;;;;;;;;;;5096069;28;20175;-74
2020/12/15 02:43:01;;;;;;;7.43;6.72;;;;;;;;;;5080688;28;20188;-72
2020/12/15 02:45:27;;;;;;;7.70;7.00;;;;;;;;;;5083734;28;20199;-73
2020/12/15 02:47:53;;;;;;;7.35;6.30;;;;;;;;;;5080544;28;20191;-71
2020/12/15 02:50:23;;;;;;;8.55;7.68;;;;;;;;;;5082531;28;20200;-72
2020/12/15 02:52:50;;;;;;;7.57;6.20;;;;;;;;;;5087580;28;20179;-72
2020/12/15 02:55:16;;;;;;;7.20;6.10;;;;;;;;;;5095384;28;20222;-73
2020/12/15 02:57:42;;;;;;;6.63;6.03;;;;;;;;;;5095998;28;20198;-75
2020/12/15 03:00:09;;;;;;;7.65;6.90;;;;;;;;;;5086145;28;20196;-74
2020/12/15 03:02:35;;;;;;;9.43;8.52;;;;;;;;;;5094856;28;20720;-72
2020/12/15 03:05:01;;;;;;;8.30;7.47;;;;;;;;;;5085232;28;20192;-74
2020/12/15 03:07:27;;;;;;;7.72;7.03;;;;;;;;;;5090646;28;20194;-74
2020/12/15 03:09:54;;;;;;;7.82;6.93;;;;;;;;;;5101634;28;20191;-72
2020/12/15 03:12:21;;;;;;;8.10;7.30;;;;;;;;;;5084302;28;20200;-73
2020/12/15 03:14:47;;;;;;;8.15;7.18;;;;;;;;;;5078486;28;20179;-73
2020/12/15 03:17:13;;;;;;;8.70;7.43;;;;;;;;;;5095564;28;20186;-75
2020/12/15 03:19:40;;;;;;;7.72;6.97;;;;;;;;;;5089736;28;20198;-73
2020/12/15 03:22:06;;;;;;;7.72;7.03;;;;;;;;;;5083997;28;20679;-74
2020/12/15 03:24:32;;;;;;;7.68;6.97;;;;;;;;;;5088806;28;20286;-72
2020/12/15 03:26:58;;;;;;;7.15;6.50;;;;;;;;;;5074997;28;20173;-73
2020/12/15 03:29:24;;;;;;;7.20;6.60;;;;;;;;;;5089701;28;20307;-73
2020/12/15 03:31:50;;;;;;;8.13;7.32;;;;;;;;;;5082584;28;20263;-74
2020/12/15 03:34:16;;;;;;;7.88;7.07;;;;;;;;;;5091370;28;20183;-74
2020/12/15 03:36:42;;;;;;;7.15;6.45;;;;;;;;;;5095126;28;20305;-74
2020/12/15 03:39:08;;;;;;;7.10;6.50;;;;;;;;;;5095240;28;20256;-71
2020/12/15 03:41:34;;;;;;;7.03;6.43;;;;;;;;;;5095007;28;20186;-72
2020/12/15 03:44:01;;;;;;;7.10;6.40;;;;;;;;;;5075403;28;20192;-74
2020/12/15 03:46:27;;;;;;;9.65;6.50;;;;;;;;;;5078601;28;20181;-72
2020/12/15 03:48:53;;;;;;;7.75;6.95;;;;;;;;;;5074877;28;20192;-74
2020/12/15 03:51:19;;;;;;;7.60;6.90;;;;;;;;;;5078703;28;20247;-72
2020/12/15 03:53:45;;;;;;;9.65;7.00;;;;;;;;;;5086542;28;20226;-72
2020/12/15 03:56:12;;;;;;;8.15;7.45;;;;;;;;;;5094831;28;20171;-71
2020/12/15 03:58:38;;;;;;;10.40;7.28;;;;;;;;;;5094463;28;20199;-74
2020/12/15 04:01:05;;;;;;;7.65;6.95;;;;;;;;;;5094510;28;20199;-75
2020/12/15 04:03:31;;;;;;;8.00;7.20;;;;;;;;;;5091092;28;20270;-73
2020/12/15 04:05:58;;;;;;;8.32;7.38;;;;;;;;;;5080658;28;20175;-74
2020/12/15 04:08:25;;;;;;;8.75;7.90;;;;;;;;;;5094300;28;20652;-72
2020/12/15 04:10:52;;;;;;;9.85;8.85;;;;;;;;;;5106001;28;20175;-74
2020/12/15 04:13:18;;;;;;;10.68;8.43;;;;;;;;;;5092111;28;20572;-73
2020/12/15 04:15:44;;;;;;;8.85;8.05;;;;;;;;;;5089339;28;20545;-73
2020/12/15 04:18:10;;;;;;;8.80;8.00;;;;;;;;;;5093209;28;20586;-75
2020/12/15 04:20:36;;;;;;;10.95;8.90;;;;;;;;;;5089956;28;20176;-73
2020/12/15 04:23:03;;;;;;;8.88;7.97;;;;;;;;;;5084624;28;20187;-73
2020/12/15 04:25:29;;;;;;;9.38;7.63;;;;;;;;;;5089432;28;20610;-72
2020/12/15 04:27:55;;;;;;;8.48;7.68;;;;;;;;;;5083305;28;20186;-74
2020/12/15 04:30:21;;;;;;;8.48;7.68;;;;;;;;;;5091107;28;20196;-72
2020/12/15 04:32:48;;;;;;;7.00;6.38;;;;;;;;;;5080900;28;20174;-74
2020/12/15 04:35:14;;;;;;;8.27;7.47;;;;;;;;;;5079926;28;20187;-72
2020/12/15 04:37:41;;;;;;;9.52;7.90;;;;;;;;;;5084295;28;20309;-73
2020/12/15 04:40:07;;;;;;;7.20;6.60;;;;;;;;;;5076683;28;20686;-75
2020/12/15 04:42:34;;;;;;;8.32;7.57;;;;;;;;;;5074043;28;20180;-75
2020/12/15 04:45:00;;;;;;;8.00;7.20;;;;;;;;;;5074585;28;20282;-75
2020/12/15 04:47:33;;;;;;;7.80;7.10;;;;;;;;;;5093378;28;20537;-71
2020/12/15 04:49:59;;;;;;;8.10;7.35;;;;;;;;;;5086258;28;20207;-75
2020/12/15 04:52:30;;;;;;;7.68;6.90;;;;;;;;;;5073702;28;20176;-73
2020/12/15 04:54:56;;;;;;;9.75;7.60;;;;;;;;;;5086206;28;20595;-74
2020/12/15 04:57:22;;;;;;;7.88;7.13;;;;;;;;;;5076943;28;20210;-73
2020/12/15 04:59:50;;;;;;;9.15;7.20;;;;;;;;;;5089294;28;20680;-74
2020/12/15 05:02:18;;;;;;;8.80;7.90;;;;;;;;;;5093587;28;20236;-74
2020/12/15 05:04:44;;;;;;;8.73;7.40;;;;;;;;;;5091933;28;20236;-74
2020/12/15 05:07:11;;;;;;;8.55;7.65;;;;;;;;;;5093236;28;20187;-73
2020/12/15 05:09:37;;;;;;;8.85;7.90;;;;;;;;;;5098131;28;20194;-73
2020/12/15 05:12:03;;;;;;;8.30;7.50;;;;;;;;;;5087098;28;20202;-73
2020/12/15 05:14:30;;;;;;;8.60;7.80;;;;;;;;;;5091105;28;20179;-73
2020/12/15 05:16:56;;;;;;;10.73;8.00;;;;;;;;;;5082654;28;20207;-75
2020/12/15 05:19:22;;;;;;;10.00;7.53;;;;;;;;;;5073002;28;20200;-75
2020/12/15 05:21:55;;;;;;;9.13;8.18;;;;;;;;;;5092977;28;20171;-75
2020/12/15 05:24:21;;;;;;;8.63;7.82;;;;;;;;;;5090674;28;20544;-73
2020/12/15 05:26:48;;;;;;;9.65;7.93;;;;;;;;;;5073034;28;20311;-75
2020/12/15 05:29:17;;;;;;;8.50;7.78;;;;;;;;;;5087512;28;20560;-73
2020/12/15 05:31:44;;;;;;;8.52;7.78;;;;;;;;;;5093140;28;20179;-73
2020/12/15 05:34:14;;;;;;;9.75;8.73;;;;;;;;;;5089764;28;20191;-73
2020/12/15 05:36:56;;;;;;;9.00;8.20;;;;;;;;;;5079290;28;20183;-73
2020/12/15 05:39:23;;;;;;;9.55;8.30;;;;;;;;;;5091792;28;20195;-75
2020/12/15 05:41:59;;;;;;;11.40;8.70;;;;;;;;;;5092725;28;20187;-74
2020/12/15 05:44:26;;;;;;;10.82;9.30;;;;;;;;;;5080231;28;20248;-74
2020/12/15 05:46:53;;;;;;;8.95;7.78;;;;;;;;;;5092805;28;20167;-73
2020/12/15 05:49:26;;;;;;;10.30;9.20;;;;;;;;;;5092321;28;20191;-74
2020/12/15 05:51:52;;;;;;;11.63;8.90;;;;;;;;;;5085903;28;20250;-74
2020/12/15 05:54:18;;;;;;;10.00;7.93;;;;;;;;;;5083732;28;20175;-71
2020/12/15 05:56:44;;;;;;;9.43;8.45;;;;;;;;;;5092861;28;20236;-73
2020/12/15 05:59:18;;;;;;;12.90;8.35;;;;;;;;;;5083293;28;20204;-74
2020/12/15 06:01:45;;;;;;;10.77;9.20;;;;;;;;;;5083489;28;20191;-70
2020/12/15 06:04:13;;;;;;;10.60;9.27;;;;;;;;;;5076319;28;20195;-71
2020/12/15 06:06:40;;;;;;;9.48;8.57;;;;;;;;;;5083586;28;20184;-71
2020/12/15 06:09:08;;;;;;;10.20;9.02;;;;;;;;;;5074106;28;20214;-71
2020/12/15 06:11:36;;;;;;;9.40;8.50;;;;;;;;;;5098749;28;20494;-72
2020/12/15 06:14:02;;;;;;;10.38;9.27;;;;;;;;;;5092128;28;20180;-72
2020/12/15 06:16:28;;;;;;;11.48;9.48;;;;;;;;;;5092655;28;20187;-70
2020/12/15 06:18:54;;;;;;;12.43;9.80;;;;;;;;;;5084880;28;20253;-72
2020/12/15 06:21:20;;;;;;;10.38;9.38;;;;;;;;;;5076226;28;20572;-73
2020/12/15 06:23:46;;;;;;;10.27;8.90;;;;;;;;;;5090541;28;20182;-72
2020/12/15 06:26:23;;;;;;;13.35;10.23;;;;;;;;;;5092493;28;20213;-73
2020/12/15 06:28:56;;;;;;;12.32;10.50;;;;;;;;;;5092474;28;20485;-71
2020/12/15 06:31:22;;;;;;;11.60;10.05;;;;;;;;;;5091815;28;20649;-72
2020/12/15 06:33:53;;;;;;;12.45;10.40;;;;;;;;;;5091640;28;20552;-72
2020/12/15 06:36:27;;;;;;;12.77;9.68;;;;;;;;;;5076216;28;20183;-71
2020/12/15 06:38:53;;;;;;;10.40;9.30;;;;;;;;;;5092554;28;20244;-72
2020/12/15 06:41:20;;;;;;;12.50;9.93;;;;;;;;;;5095646;28;20191;-73
2020/12/15 06:43:46;;;;;;;12.15;10.05;;;;;;;;;;5095486;28;20167;-72
2020/12/15 06:46:12;;;;;;;12.82;10.30;;;;;;;;;;5095659;28;20180;-73
2020/12/15 06:48:38;;;;;;;11.43;10.30;;;;;;;;;;5095945;28;20191;-71
2020/12/15 06:51:05;;;;;;;11.73;9.63;;;;;;;;;;5081647;28;20171;-72
2020/12/15 06:53:31;;;;;;;11.02;9.93;;;;;;;;;;5095529;28;20179;-72
2020/12/15 06:56:07;;;;;;;12.13;10.07;;;;;;;;;;5096045;28;20186;-73
2020/12/15 06:58:33;;;;;;;11.00;9.60;;;;;;;;;;5095740;28;20203;-73
2020/12/15 07:01:02;;;;;;;10.07;9.02;;;;;;;;;;5085138;28;20266;-72
2020/12/15 07:03:34;;;;;;;11.95;9.93;;;;;;;;;;5095820;28;20317;-73
2020/12/15 07:06:10;;;;;;;14.55;10.15;;;;;;;;;;5088751;28;20182;-72
2020/12/15 07:08:36;;;;;;;13.50;10.52;;;;;;;;;;5093098;28;20263;-72
2020/12/15 07:11:02;;;;;;;13.00;10.75;;;;;;;;;;5092556;28;20625;-71
2020/12/15 07:13:28;;;;;;;11.38;10.15;;;;;;;;;;5093201;28;20179;-72
2020/12/15 07:15:54;;;;;;;12.73;10.63;;;;;;;;;;5075279;28;20176;-70
2020/12/15 07:18:20;;;;;;;12.20;10.20;;;;;;;;;;5075401;28;20187;-72
2020/12/15 07:20:46;;;;;;;13.60;10.23;;;;;;;;;;5075384;28;20176;-73
2020/12/15 07:23:12;;;;;;;11.70;9.95;;;;;;;;;;5075593;28;20635;-72
2020/12/15 07:25:38;;;;;;;11.55;10.13;;;;;;;;;;5074839;28;20223;-73
2020/12/15 07:28:05;;;;;;;13.43;10.60;;;;;;;;;;5075578;28;20261;-73
2020/12/15 07:30:31;;;;;;;11.07;9.18;;;;;;;;;;5075027;28;20223;-72
2020/12/15 07:32:57;;;;;;;12.95;10.88;;;;;;;;;;5074931;28;20168;-72
2020/12/15 07:35:24;;;;;;;13.82;10.30;;;;;;;;;;5074778;28;20610;-71
2020/12/15 07:37:54;;;;;;;11.82;10.20;;;;;;;;;;5080380;28;20233;-72
2020/12/15 07:40:20;;;;;;;13.65;10.30;;;;;;;;;;5094672;28;20218;-74
2020/12/15 07:42:59;;;;;;;14.00;10.43;;;;;;;;;;5083827;28;20195;-73
2020/12/15 07:45:26;;;;;;;11.55;9.77;;;;;;;;;;5086180;28;20213;-74
2020/12/15 07:47:53;;;;;;;12.52;10.38;;;;;;;;;;5082747;28;20648;-74
2020/12/15 07:50:29;;;;;;;14.63;11.48;;;;;;;;;;5079118;28;20680;-72
2020/12/15 07:52:57;;;;;;;13.73;12.20;;;;;;;;;;5090615;28;20183;-72
2020/12/15 07:55:25;;;;;;;13.50;10.73;;;;;;;;;;5090682;28;20259;-72
2020/12/15 07:57:52;;;;;;;13.50;10.57;;;;;;;;;;5082049;28;20580;-73
2020/12/15 08:00:21;;;;;;;14.82;11.23;;;;;;;;;;5082151;28;20237;-74
2020/12/15 08:02:48;;;;;;;12.57;10.80;;;;;;;;;;5086723;28;20185;-74
2020/12/15 08:05:18;;;;;;;11.75;10.40;;;;;;;;;;5080968;28;20199;-73
2020/12/15 08:07:49;;;;;;;13.13;10.85;;;;;;;;;;5090494;28;20198;-72
2020/12/15 08:10:15;;;;;;;11.52;10.25;;;;;;;;;;5089457;28;20239;-72
2020/12/15 08:12:42;;;;;;;12.43;10.85;;;;;;;;;;5089757;28;20634;-73
2020/12/15 08:15:08;;;;;;;14.05;11.73;;;;;;;;;;5082545;28;20257;-72
2020/12/15 08:17:35;;;;;;;15.18;10.93;;;;;;;;;;5086408;28;20514;-71
2020/12/15 08:20:10;;;;;;;14.80;10.90;;;;;;;;;;5090387;28;20290;-74
2020/12/15 08:22:40;;;;;;;13.98;10.90;;;;;;;;;;5076388;28;20178;-73
2020/12/15 08:25:17;;;;;;;14.50;11.90;;;;;;;;;;5078291;28;20290;-73
2020/12/15 08:27:43;;;;;;;20.83;11.98;;;;;;;;;;5090112;28;20202;-72
2020/12/15 08:30:12;;;;;;;13.52;11.82;;;;;;;;;;5090134;28;20210;-73
2020/12/15 08:32:39;;;;;;;13.55;11.20;;;;;;;;;;5070858;28;20172;-73
2020/12/15 08:35:05;;;;;;;16.35;11.82;;;;;;;;;;5076815;28;20629;-74
2020/12/15 08:37:32;;;;;;;12.43;11.07;;;;;;;;;;5088043;28;20588;-72
2020/12/15 08:39:58;;;;;;;12.70;11.05;;;;;;;;;;5082826;28;20239;-74
2020/12/15 08:42:25;;;;;;;13.13;10.77;;;;;;;;;;5075145;28;20584;-72
2020/12/15 08:44:52;;;;;;;12.10;10.15;;;;;;;;;;5088913;28;20213;-71
2020/12/15 08:47:18;;;;;;;16.95;10.73;;;;;;;;;;5083521;28;20225;-73
2020/12/15 08:49:45;;;;;;;14.55;12.00;;;;;;;;;;5081424;28;20929;-73
2020/12/15 08:52:12;;;;;;;16.70;12.20;;;;;;;;;;5089529;28;20222;-73
2020/12/15 08:54:44;;;;;;;13.75;11.13;;;;;;;;;;5089221;28;20187;-73
2020/12/15 08:57:14;;;;;;;15.73;11.20;;;;;;;;;;5088882;28;20664;-74
2020/12/15 08:59:40;;;;;;;13.63;10.32;;;;;;;;;;5088336;28;20227;-74
2020/12/15 09:02:07;;;;;;;11.88;10.57;;;;;;;;;;5089520;28;20194;-72
2020/12/15 09:04:33;;;;;;;15.63;12.15;;;;;;;;;;5085935;28;20207;-73
2020/12/15 09:06:59;;;;;;;14.73;11.85;;;;;;;;;;5085166;28;20209;-74
2020/12/15 09:09:31;;;;;;;19.17;12.52;;;;;;;;;;5075756;28;20207;-74
2020/12/15 09:11:58;;;;;;;14.13;11.52;;;;;;;;;;5087047;28;20183;-75
2020/12/15 09:14:24;;;;;;;13.93;11.63;;;;;;;;;;5084585;28;20205;-73
2020/12/15 09:16:50;;;;;;;14.32;11.35;;;;;;;;;;5087314;28;20224;-72
2020/12/15 09:19:17;;;;;;;18.30;11.80;;;;;;;;;;5069350;28;20608;-72
2020/12/15 09:21:54;;;;;;;13.55;12.10;;;;;;;;;;5070862;28;20189;-74
2020/12/15 09:24:21;;;;;;;14.95;12.23;;;;;;;;;;5068913;28;20310;-72
2020/12/15 09:26:47;;;;;;;16.42;13.63;;;;;;;;;;5071847;28;20175;-72
2020/12/15 09:29:13;;;;;;;16.65;14.02;;;;;;;;;;5079980;28;20196;-70
2020/12/15 09:31:39;;;;;;;16.48;13.52;;;;;;;;;;5081618;28;20209;-70
2020/12/15 09:34:06;;;;;;;15.70;12.05;;;;;;;;;;5068856;28;20183;-71
2020/12/15 09:36:32;;;;;;;13.45;12.10;;;;;;;;;;5082211;28;20288;-75
2020/12/15 09:38:58;;;;;;;13.85;12.43;;;;;;;;;;5087331;28;20214;-72
2020/12/15 09:41:24;;;;;;;13.02;11.65;;;;;;;;;;5083676;28;20198;-73
2020/12/15 09:43:50;;;;;;;14.05;10.80;;;;;;;;;;5073179;28;20186;-75
2020/12/15 09:46:16;;;;;;;18.23;12.25;;;;;;;;;;5073279;28;20173;-74
2020/12/15 09:48:42;;;;;;;14.02;11.82;;;;;;;;;;5071508;28;20242;-73
2020/12/15 09:51:11;;;;;;;12.27;10.98;;;;;;;;;;5088605;28;20183;-74
2020/12/15 09:53:37;;;;;;;15.20;12.02;;;;;;;;;;5088632;28;20183;-73
2020/12/15 09:56:03;;;;;;;18.95;14.73;;;;;;;;;;5085031;28;20518;-73
2020/12/15 09:58:29;;;;;;;14.63;13.00;;;;;;;;;;5081363;28;20256;-74
2020/12/15 10:00:55;;;;;;;14.68;12.68;;;;;;;;;;5088088;28;20194;-73
2020/12/15 10:03:21;;;;;;;14.32;12.93;;;;;;;;;;5088847;28;20218;-72
2020/12/15 10:05:48;;;;;;;14.50;12.70;;;;;;;;;;5087893;28;20210;-73
2020/12/15 10:08:14;;;;;;;16.77;12.68;;;;;;;;;;5088546;28;20268;-73
2020/12/15 10:10:40;;;;;;;14.98;12.57;;;;;;;;;;5074524;28;20189;-73
2020/12/15 10:13:07;;;;;;;15.02;11.90;;;;;;;;;;5074985;28;20719;-73
2020/12/15 10:15:33;;;;;;;14.80;11.48;;;;;;;;;;5078918;28;20673;-75
2020/12/15 10:17:59;;;;;;;13.15;11.80;;;;;;;;;;5072674;28;20261;-71
2020/12/15 10:20:26;;;;;;;13.32;12.02;;;;;;;;;;5078157;28;20203;-72
2020/12/15 10:22:52;;;;;;;13.32;11.93;;;;;;;;;;5072273;28;20241;-74
2020/12/15 10:25:22;;;;;;;13.55;11.73;;;;;;;;;;5089246;28;20314;-73
2020/12/15 10:27:48;;;;;;;13.02;11.73;;;;;;;;;;5092884;28;20181;-72
2020/12/15 10:30:14;;;;;;;13.57;11.27;;;;;;;;;;5081483;28;20191;-72
2020/12/15 10:32:40;;;;;;;12.07;10.43;;;;;;;;;;5072324;28;20585;-74
2020/12/15 10:35:06;;;;;;;13.38;11.15;;;;;;;;;;5073189;28;20587;-74
2020/12/15 10:37:32;;;;;;;13.45;11.90;;;;;;;;;;5081144;28;20187;-74
2020/12/15 10:39:59;;;;;;;13.80;11.85;;;;;;;;;;5090684;28;20210;-74
2020/12/15 10:42:27;;;;;;;14.25;12.35;;;;;;;;;;5075440;28;20184;-73
2020/12/15 10:44:53;;;;;;;12.85;11.57;;;;;;;;;;5090560;28;20203;-74
2020/12/15 10:47:19;;;;;;;13.88;11.82;;;;;;;;;;5078812;28;20179;-74
2020/12/15 10:49:45;;;;;;;13.38;11.93;;;;;;;;;;5078208;28;20337;-73
2020/12/15 10:52:11;;;;;;;13.32;11.13;;;;;;;;;;5070447;28;20192;-75
2020/12/15 10:54:37;;;;;;;16.10;12.48;;;;;;;;;;5074061;28;20648;-73
2020/12/15 10:57:05;;;;;;;12.07;10.88;;;;;;;;;;5089434;28;20234;-73
2020/12/15 10:59:31;;;;;;;12.95;11.60;;;;;;;;;;5092691;28;20199;-74
2020/12/15 11:01:57;;;;;;;13.02;11.68;;;;;;;;;;5092116;28;20183;-75
2020/12/15 11:04:23;;;;;;;14.07;11.35;;;;;;;;;;5077038;28;20287;-75
2020/12/15 11:06:49;;;;;;;12.13;10.90;;;;;;;;;;5073590;28;20681;-75
2020/12/15 11:09:16;;;;;;;13.05;11.68;;;;;;;;;;5080692;28;20208;-74
2020/12/15 11:11:48;;;;;;;12.52;11.20;;;;;;;;;;5079209;28;20179;-75
2020/12/15 11:14:14;;;;;;;13.15;11.35;;;;;;;;;;5088996;28;20210;-74
2020/12/15 11:16:41;;;;;;;14.35;11.88;;;;;;;;;;5074352;28;20575;-76
2020/12/15 11:19:07;;;;;;;15.40;12.63;;;;;;;;;;5071306;28;20200;-74
2020/12/15 11:21:33;;;;;;;12.85;11.55;;;;;;;;;;5070535;28;20219;-74
2020/12/15 11:23:59;;;;;;;12.88;11.57;;;;;;;;;;5082688;28;20518;-74
2020/12/15 11:26:25;;;;;;;12.45;10.60;;;;;;;;;;5081769;28;20210;-75
2020/12/15 11:28:51;;;;;;;12.77;11.48;;;;;;;;;;5088678;28;20680;-78
2020/12/15 11:31:17;;;;;;;15.13;11.55;;;;;;;;;;5090355;28;20176;-75
2020/12/15 11:33:45;;;;;;;13.57;11.40;;;;;;;;;;5089033;28;20274;-74
2020/12/15 11:36:11;;;;;;;13.48;11.25;;;;;;;;;;5089771;28;20180;-75
2020/12/15 11:38:39;;;;;;;12.63;11.32;;;;;;;;;;5084669;28;20227;-73
2020/12/15 11:41:06;;;;;;;11.38;10.38;;;;;;;;;;5084717;28;20215;-74
2020/12/15 11:43:32;;;;;;;15.25;11.30;;;;;;;;;;5088630;28;20176;-72
2020/12/15 11:45:58;;;;;;;12.13;10.85;;;;;;;;;;5085060;28;20685;-73
2020/12/15 11:48:25;;;;;;;13.60;12.25;;;;;;;;;;5090537;28;20277;-73
2020/12/15 11:50:51;;;;;;;12.68;11.38;;;;;;;;;;5086401;28;20176;-75
2020/12/15 11:53:17;;;;;;;13.07;11.65;;;;;;;;;;5078379;28;20785;-73
2020/12/15 11:55:43;;;;;;;14.20;12.70;;;;;;;;;;5070758;28;20623;-73
2020/12/15 11:58:09;;;;;;;13.90;12.27;;;;;;;;;;5082601;28;20557;-74
2020/12/15 12:00:35;;;;;;;14.30;12.73;;;;;;;;;;5089326;28;20186;-74
2020/12/15 12:03:01;;;;;;;32.78;26.70;;;;;;;;;;5089653;28;20284;-73
2020/12/15 12:05:27;;;;;;;20.08;17.20;;;;;;;;;;5090360;28;20203;-73
2020/12/15 12:07:54;;;;;;;16.45;13.55;;;;;;;;;;5090279;28;20187;-74
2020/12/15 12:10:20;;;;;;;18.73;13.13;;;;;;;;;;5086084;28;20203;-73
2020/12/15 12:12:46;;;;;;;17.80;13.52;;;;;;;;;;5087776;28;20180;-74
2020/12/15 12:15:12;;;;;;;14.00;12.50;;;;;;;;;;5080016;28;20184;-74
2020/12/15 12:17:38;;;;;;;16.05;13.13;;;;;;;;;;5086292;28;20182;-75
2020/12/15 12:20:05;;;;;;;15.77;12.55;;;;;;;;;;5088903;28;20207;-74
2020/12/15 12:22:31;;;;;;;14.40;10.80;;;;;;;;;;5090350;28;20183;-74
2020/12/15 12:24:57;;;;;;;13.00;11.70;;;;;;;;;;5089977;28;20280;-74
2020/12/15 12:27:23;;;;;;;13.45;11.75;;;;;;;;;;5090437;28;20545;-73
2020/12/15 12:29:49;;;;;;;13.60;11.55;;;;;;;;;;5087994;28;20222;-73
2020/12/15 12:32:15;;;;;;;12.80;11.50;;;;;;;;;;5090386;28;20176;-74
2020/12/15 12:34:41;;;;;;;15.00;11.07;;;;;;;;;;5090065;28;20262;-73
2020/12/15 12:37:10;;;;;;;13.20;10.75;;;;;;;;;;5084161;28;20270;-74
2020/12/15 12:39:37;;;;;;;13.55;10.60;;;;;;;;;;5077735;28;20607;-73
2020/12/15 12:42:03;;;;;;;14.75;11.70;;;;;;;;;;5083015;28;20211;-73
2020/12/15 12:44:32;;;;;;;15.50;10.93;;;;;;;;;;5072901;28;20246;-76
2020/12/15 12:46:58;;;;;;;12.32;10.88;;;;;;;;;;5088899;28;20675;-73
2020/12/15 12:49:24;;;;;;;20.70;17.75;;;;;;;;;;5086230;28;20666;-74
2020/12/15 12:51:52;;;;;;;24.05;19.75;;;;;;;;;;5080111;28;20216;-75
2020/12/15 12:54:18;;;;;;;13.68;11.13;;;;;;;;;;5069180;28;20180;-76
2020/12/15 12:56:44;;;;;;;12.48;11.25;;;;;;;;;;5079380;28;20616;-75
2020/12/15 12:59:11;;;;;;;13.65;11.45;;;;;;;;;;5086980;28;20339;-75
2020/12/15 13:01:37;;;;;;;11.65;10.18;;;;;;;;;;5088634;28;20183;-74
2020/12/15 13:04:03;;;;;;;14.05;11.60;;;;;;;;;;5074283;28;20192;-73
2020/12/15 13:06:29;;;;;;;13.00;11.70;;;;;;;;;;5075236;28;20186;-75
2020/12/15 13:08:56;;;;;;;13.50;12.15;;;;;;;;;;5069380;28;20212;-73
2020/12/15 13:11:25;;;;;;;13.82;12.35;;;;;;;;;;5080984;28;20562;-73
2020/12/15 13:13:52;;;;;;;16.52;12.38;;;;;;;;;;5081761;28;20175;-74
2020/12/15 13:16:18;;;;;;;16.00;11.80;;;;;;;;;;5079593;28;20205;-74
2020/12/15 13:18:44;;;;;;;13.13;11.52;;;;;;;;;;5069344;28;20204;-73
2020/12/15 13:21:10;;;;;;;14.20;12.30;;;;;;;;;;5079563;28;20533;-74
2020/12/15 13:23:36;;;;;;;15.82;12.90;;;;;;;;;;5072223;28;20226;-72
2020/12/15 13:26:03;;;;;;;13.73;12.30;;;;;;;;;;5079310;28;20568;-75
2020/12/15 13:28:29;;;;;;;16.63;12.27;;;;;;;;;;5072378;28;20207;-75
2020/12/15 13:30:55;;;;;;;43.53;30.23;;;;;;;;;;5077602;28;20263;-73
2020/12/15 13:33:21;;;;;;;16.70;13.57;;;;;;;;;;5089327;28;20199;-73
2020/12/15 13:35:47;;;;;;;15.88;14.25;;;;;;;;;;5088739;28;20184;-74
2020/12/15 13:38:13;;;;;;;14.48;12.85;;;;;;;;;;5083159;28;20183;-74
2020/12/15 13:40:39;;;;;;;17.25;14.43;;;;;;;;;;5080343;28;20548;-73
2020/12/15 13:43:05;;;;;;;14.82;13.23;;;;;;;;;;5089070;28;20186;-71
2020/12/15 13:45:31;;;;;;;17.58;13.45;;;;;;;;;;5086261;28;20252;-75
2020/12/15 13:47:59;;;;;;;17.13;14.75;;;;;;;;;;5088003;28;20178;-74
2020/12/15 13:50:25;;;;;;;16.10;14.27;;;;;;;;;;5088436;28;20223;-73
2020/12/15 13:52:51;;;;;;;20.30;15.85;;;;;;;;;;5086505;28;20611;-74
2020/12/15 13:55:17;;;;;;;19.35;14.80;;;;;;;;;;5068610;28;20290;-73
2020/12/15 13:57:43;;;;;;;16.88;15.02;;;;;;;;;;5072349;28;20180;-74
2020/12/15 14:00:09;;;;;;;18.45;15.30;;;;;;;;;;5067401;28;20576;-74
2020/12/15 14:02:35;;;;;;;19.23;14.45;;;;;;;;;;5071694;28;20191;-72
2020/12/15 14:05:01;;;;;;;17.90;15.07;;;;;;;;;;5068484;28;20688;-74
2020/12/15 14:07:27;;;;;;;19.35;16.60;;;;;;;;;;5070040;28;20573;-75
2020/12/15 14:09:53;;;;;;;19.17;15.23;;;;;;;;;;5077382;28;20187;-72
2020/12/15 14:12:19;;;;;;;17.13;14.70;;;;;;;;;;5086581;28;20183;-73
2020/12/15 14:14:45;;;;;;;17.85;14.38;;;;;;;;;;5087809;28;20652;-74
2020/12/15 14:17:12;;;;;;;17.80;15.90;;;;;;;;;;5079391;28;20526;-71
2020/12/15 14:19:38;;;;;;;18.92;15.38;;;;;;;;;;5076044;28;20208;-73
2020/12/15 14:22:04;;;;;;;23.33;15.98;;;;;;;;;;5073324;28;20180;-73
2020/12/15 14:24:30;;;;;;;19.00;16.50;;;;;;;;;;5074309;28;20208;-72
2020/12/15 14:26:56;;;;;;;21.10;17.63;;;;;;;;;;5068420;28;20262;-72